Time,TemperatureF,DewpointF,PressureIn,WindDirection,WindDirectionDegrees,WindSpeedMPH,WindSpeedGustMPH,Humidity,HourlyPrecipIn,Conditions,Clouds,dailyrainin,SoftwareType,DateUTC
2013-10-21 00:01:00,48.0,43.1,0.00,West,265,0.0,0.0,83,0.00,,---,0.00,VWS V13.01,2013-10-21 04:01:00,
2013-10-21 00:06:00,47.8,42.9,0.00,West,265,0.0,0.0,83,0.00,,---,0.00,VWS V13.01,2013-10-21 04:06:00,
2013-10-21 00:11:00,47.8,42.9,0.00,West,265,0.0,0.0,83,0.00,,---,0.00,VWS V13.01,2013-10-21 04:11:00,
2013-10-21 00:16:00,47.8,42.9,0.00,West,265,0.0,0.0,83,0.00,,---,0.00,VWS V13.01,2013-10-21 04:16:00,
2013-10-21 00:21:00,47.5,42.3,0.00,West,265,0.0,0.0,82,0.00,,---,0.00,VWS V13.01,2013-10-21 04:21:00,
2013-10-21 00:26:00,47.3,42.1,0.00,West,265,0.0,0.0,82,0.00,,---,0.00,VWS V13.01,2013-10-21 04:26:00,
2013-10-21 00:31:00,46.9,41.7,0.00,West,265,0.0,0.0,82,0.00,,---,0.00,VWS V13.01,2013-10-21 04:31:00,
2013-10-21 00:36:00,46.6,41.4,0.00,West,265,0.0,0.0,82,0.00,,---,0.00,VWS V13.01,2013-10-21 04:36:00,
2013-10-21 00:41:00,46.2,41.3,0.00,West,265,0.0,0.0,83,0.00,,---,0.00,VWS V13.01,2013-10-21 04:41:00,
2013-10-21 00:46:00,45.9,41.0,0.00,West,265,0.0,0.0,83,0.00,,---,0.00,VWS V13.01,2013-10-21 04:46:00,
2013-10-21 00:51:00,45.7,40.8,0.00,West,265,0.0,0.0,83,0.00,,---,0.00,VWS V13.01,2013-10-21 04:51:00,
2013-10-21 00:56:00,45.9,41.3,0.00,West,265,0.0,0.0,84,0.00,,---,0.00,VWS V13.01,2013-10-21 04:56:00,
2013-10-21 01:01:00,46.0,41.8,0.00,West,265,0.0,0.0,85,0.00,,---,0.00,VWS V13.01,2013-10-21 05:01:00,
2013-10-21 01:06:00,46.0,41.8,0.00,West,265,0.0,0.0,85,0.00,,---,0.00,VWS V13.01,2013-10-21 05:06:00,
2013-10-21 01:11:00,46.0,41.8,0.00,West,265,0.0,0.0,85,0.00,,---,0.00,VWS V13.01,2013-10-21 05:11:00,
2013-10-21 01:16:00,46.2,42.3,0.00,West,265,0.0,0.0,86,0.00,,---,0.00,VWS V13.01,2013-10-21 05:16:00,
2013-10-21 01:21:00,46.2,42.3,0.00,West,265,0.0,0.0,86,0.00,,---,0.00,VWS V13.01,2013-10-21 05:21:00,
2013-10-21 01:26:00,46.2,42.3,0.00,West,265,0.0,0.0,86,0.00,,---,0.00,VWS V13.01,2013-10-21 05:26:00,
2013-10-21 01:31:00,46.0,42.1,0.00,West,265,0.0,0.0,86,0.00,,---,0.00,VWS V13.01,2013-10-21 05:31:00,
2013-10-21 01:36:00,45.9,41.9,0.00,West,265,0.0,0.0,86,0.00,,---,0.00,VWS V13.01,2013-10-21 05:36:00,
2013-10-21 01:41:00,46.0,42.4,0.00,West,265,0.0,0.0,87,0.00,,---,0.00,VWS V13.01,2013-10-21 05:41:00,
2013-10-21 01:46:00,46.2,42.6,0.00,West,265,0.0,0.0,87,0.00,,---,0.00,VWS V13.01,2013-10-21 05:46:00,
2013-10-21 01:51:00,46.6,43.2,0.00,West,265,0.0,0.0,88,0.00,,---,0.00,VWS V13.01,2013-10-21 05:51:00,
2013-10-21 01:56:00,46.6,43.2,0.00,West,265,0.0,0.0,88,0.00,,---,0.00,VWS V13.01,2013-10-21 05:56:00,
2013-10-21 02:01:00,46.6,43.2,0.00,West,265,0.0,0.0,88,0.00,,---,0.00,VWS V13.01,2013-10-21 06:01:00,
2013-10-21 02:06:00,46.6,43.5,0.00,West,265,0.0,0.0,89,0.00,,---,0.00,VWS V13.01,2013-10-21 06:06:00,
2013-10-21 02:11:00,46.8,43.7,0.00,West,265,0.0,0.0,89,0.00,,---,0.00,VWS V13.01,2013-10-21 06:11:00,
2013-10-21 02:16:00,46.8,43.7,0.00,West,265,0.0,0.0,89,0.00,,---,0.00,VWS V13.01,2013-10-21 06:16:00,
2013-10-21 02:21:00,46.8,43.7,0.00,West,265,0.0,0.0,89,0.00,,---,0.00,VWS V13.01,2013-10-21 06:21:00,
2013-10-21 02:26:00,46.9,43.9,0.00,West,265,0.0,0.0,89,0.00,,---,0.00,VWS V13.01,2013-10-21 06:26:00,
2013-10-21 02:31:00,46.9,43.9,0.00,West,265,0.0,0.0,89,0.00,,---,0.00,VWS V13.01,2013-10-21 06:31:00,
2013-10-21 02:35:00,47.1,44.3,0.00,West,265,0.0,0.0,90,0.00,,---,0.00,VWS V13.01,2013-10-21 06:35:00,
2013-10-21 02:40:00,47.1,44.3,0.00,West,265,0.0,0.0,90,0.00,,---,0.00,VWS V13.01,2013-10-21 06:40:00,
2013-10-21 02:45:00,47.3,44.5,0.00,West,265,0.0,0.0,90,0.00,,---,0.00,VWS V13.01,2013-10-21 06:45:00,
2013-10-21 02:50:00,47.5,44.7,0.00,West,265,0.0,0.0,90,0.00,,---,0.00,VWS V13.01,2013-10-21 06:50:00,
2013-10-21 02:55:00,47.5,44.4,0.00,West,265,0.0,0.0,89,0.00,,---,0.00,VWS V13.01,2013-10-21 06:55:00,
2013-10-21 03:00:00,47.5,44.4,0.00,West,265,0.0,0.0,89,0.00,,---,0.00,VWS V13.01,2013-10-21 07:00:00,
2013-10-21 03:05:00,47.5,44.4,0.00,West,265,0.0,0.0,89,0.00,,---,0.00,VWS V13.01,2013-10-21 07:05:00,
2013-10-21 03:10:00,47.5,44.4,0.00,West,265,0.0,0.0,89,0.00,,---,0.00,VWS V13.01,2013-10-21 07:10:00,
2013-10-21 03:15:00,47.5,44.1,0.00,West,265,0.0,0.0,88,0.00,,---,0.00,VWS V13.01,2013-10-21 07:15:00,
2013-10-21 03:20:00,47.7,44.3,0.00,West,265,0.0,0.0,88,0.00,,---,0.00,VWS V13.01,2013-10-21 07:20:00,
2013-10-21 03:25:00,47.5,43.8,0.00,West,265,0.0,0.0,87,0.00,,---,0.00,VWS V13.01,2013-10-21 07:25:00,
2013-10-21 03:30:00,47.5,43.8,0.00,West,265,0.0,0.0,87,0.00,,---,0.00,VWS V13.01,2013-10-21 07:30:00,
2013-10-21 03:35:00,47.7,43.7,0.00,West,265,0.0,0.0,86,0.00,,---,0.00,VWS V13.01,2013-10-21 07:35:00,
2013-10-21 07:34:00,50.0,38.3,0.00,SE,136,0.0,0.0,64,0.00,,---,0.00,VWS V13.01,2013-10-21 11:34:00,
2013-10-21 07:39:00,50.0,37.9,0.00,SSE,164,0.0,8.1,63,0.00,,---,0.00,VWS V13.01,2013-10-21 11:39:00,
2013-10-21 07:44:00,50.2,37.7,0.00,SSE,166,0.0,9.7,62,0.00,,---,0.00,VWS V13.01,2013-10-21 11:44:00,
2013-10-21 07:49:00,50.2,37.7,0.00,SE,127,0.0,4.8,62,0.00,,---,0.00,VWS V13.01,2013-10-21 11:49:00,
2013-10-21 07:54:00,50.4,37.4,0.00,SSE,158,3.4,8.1,61,0.00,,---,0.00,VWS V13.01,2013-10-21 11:54:00,
2013-10-21 07:59:00,50.4,37.4,0.00,SSE,158,4.7,9.7,61,0.00,,---,0.00,VWS V13.01,2013-10-21 11:59:00,
2013-10-21 08:04:00,50.7,37.4,0.00,ESE,112,0.0,6.4,60,0.00,,---,0.00,VWS V13.01,2013-10-21 12:04:00,
2013-10-21 08:09:00,50.7,37.4,0.00,SSW,197,0.0,6.4,60,0.00,,---,0.00,VWS V13.01,2013-10-21 12:09:00,
2013-10-21 08:14:00,50.9,37.5,0.00,ESE,117,7.4,8.9,60,0.00,,---,0.00,VWS V13.01,2013-10-21 12:14:00,
2013-10-21 08:19:00,51.1,37.3,0.00,SSE,152,0.0,6.4,59,0.00,,---,0.00,VWS V13.01,2013-10-21 12:19:00,
2013-10-21 08:24:00,51.4,37.6,0.00,SE,144,0.0,4.0,59,0.00,,---,0.00,VWS V13.01,2013-10-21 12:24:00,
2013-10-21 08:29:00,51.6,37.8,0.00,SSE,158,0.0,6.4,59,0.00,,---,0.00,VWS V13.01,2013-10-21 12:29:00,
2013-10-21 08:34:00,52.0,37.7,0.00,SSE,160,6.0,10.5,58,0.00,,---,0.00,VWS V13.01,2013-10-21 12:34:00,
2013-10-21 08:39:00,52.3,38.0,0.00,SSE,163,0.0,5.6,58,0.00,,---,0.00,VWS V13.01,2013-10-21 12:39:00,
2013-10-21 08:44:00,52.5,37.7,0.00,ESE,109,0.0,4.8,57,0.00,,---,0.00,VWS V13.01,2013-10-21 12:44:00,
2013-10-21 08:49:00,52.9,38.1,0.00,SSW,199,4.7,10.5,57,0.00,,---,0.00,VWS V13.01,2013-10-21 12:49:00,
2013-10-21 08:54:00,53.1,38.2,0.00,South,187,0.0,4.0,57,0.00,,---,0.00,VWS V13.01,2013-10-21 12:54:00,
2013-10-21 08:59:00,53.4,38.6,0.00,South,177,0.0,6.4,57,0.00,,---,0.00,VWS V13.01,2013-10-21 12:59:00,
2013-10-21 09:04:00,54.1,38.8,0.00,SW,219,0.0,7.2,56,0.00,,---,0.00,VWS V13.01,2013-10-21 13:04:00,
2013-10-21 09:09:00,54.7,38.8,0.00,South,170,0.0,8.9,55,0.00,,---,0.00,VWS V13.01,2013-10-21 13:09:00,
2013-10-21 09:14:00,54.7,38.8,0.00,WSW,238,4.0,7.2,55,0.00,,---,0.00,VWS V13.01,2013-10-21 13:14:00,
2013-10-21 09:19:00,54.9,38.5,0.00,SE,140,0.0,13.7,54,0.00,,---,0.00,VWS V13.01,2013-10-21 13:19:00,
2013-10-21 09:24:00,54.9,38.1,0.00,SSW,202,0.0,7.2,53,0.00,,---,0.00,VWS V13.01,2013-10-21 13:24:00,
2013-10-21 09:29:00,55.8,38.4,0.00,ESE,113,4.0,6.4,52,0.00,,---,0.00,VWS V13.01,2013-10-21 13:29:00,
2013-10-21 09:34:00,56.5,38.6,0.00,NNE,12,0.0,8.1,51,0.00,,---,0.00,VWS V13.01,2013-10-21 13:34:00,
2013-10-21 09:39:00,56.8,38.9,0.00,WSW,254,4.0,6.4,51,0.00,,---,0.00,VWS V13.01,2013-10-21 13:39:00,
2013-10-21 09:44:00,57.2,38.8,0.00,WSW,237,7.4,12.1,50,0.00,,---,0.00,VWS V13.01,2013-10-21 13:44:00,
2013-10-21 09:49:00,57.9,38.9,0.00,West,276,0.0,9.7,49,0.00,,---,0.00,VWS V13.01,2013-10-21 13:49:00,
2013-10-21 09:54:00,58.1,38.5,0.00,SW,221,0.0,21.3,48,0.00,,---,0.00,VWS V13.01,2013-10-21 13:54:00,
2013-10-21 09:59:00,58.3,38.7,0.00,SE,135,8.1,14.9,48,0.00,,---,0.00,VWS V13.01,2013-10-21 13:59:00,
2013-10-21 10:04:00,58.5,38.3,0.00,South,182,7.4,13.7,47,0.00,,---,0.00,VWS V13.01,2013-10-21 14:04:00,
2013-10-21 10:09:00,58.5,38.3,0.00,WSW,241,5.4,18.1,47,0.00,,---,0.00,VWS V13.01,2013-10-21 14:09:00,
2013-10-21 10:14:00,58.6,38.5,0.00,SW,219,0.0,7.2,47,0.00,,---,0.00,VWS V13.01,2013-10-21 14:14:00,
2013-10-21 10:19:00,58.8,38.7,0.00,East,100,0.0,8.9,47,0.00,,---,0.00,VWS V13.01,2013-10-21 14:19:00,
2013-10-21 10:24:00,59.2,38.4,0.00,SSE,157,8.1,14.9,46,0.00,,---,0.00,VWS V13.01,2013-10-21 14:24:00,
2013-10-21 10:29:00,59.4,38.6,0.00,WSW,238,4.7,13.7,46,0.00,,---,0.00,VWS V13.01,2013-10-21 14:29:00,
2013-10-21 10:34:00,59.5,38.8,0.00,SW,226,8.1,15.7,46,0.00,,---,0.00,VWS V13.01,2013-10-21 14:34:00,
2013-10-21 10:39:00,59.7,38.4,0.00,WNW,291,8.7,10.5,45,0.00,,---,0.00,VWS V13.01,2013-10-21 14:39:00,
2013-10-21 10:44:00,59.9,38.5,0.00,South,186,5.4,19.7,45,0.00,,---,0.00,VWS V13.01,2013-10-21 14:44:00,
2013-10-21 10:49:00,60.1,38.7,0.00,SW,232,5.4,14.5,45,0.00,,---,0.00,VWS V13.01,2013-10-21 14:49:00,
2013-10-21 10:54:00,60.3,38.8,0.00,ESE,109,3.4,9.7,45,0.00,,---,0.00,VWS V13.01,2013-10-21 14:54:00,
2013-10-21 10:59:00,60.6,39.2,0.00,WSW,247,7.4,13.7,45,0.00,,---,0.00,VWS V13.01,2013-10-21 14:59:00,
2013-10-21 11:04:00,61.0,38.9,0.00,WSW,246,8.1,18.1,44,0.00,,---,0.00,VWS V13.01,2013-10-21 15:04:00,
2013-10-21 11:09:00,61.5,39.4,0.00,West,272,5.4,13.7,44,0.00,,---,0.00,VWS V13.01,2013-10-21 15:09:00,
2013-10-21 11:13:00,61.9,39.8,0.00,SW,214,7.4,10.5,44,0.00,,---,0.00,VWS V13.01,2013-10-21 15:13:00,
2013-10-21 11:18:00,62.2,40.1,0.00,SSW,200,7.4,10.5,44,0.00,,---,0.00,VWS V13.01,2013-10-21 15:18:00,
2013-10-21 11:23:00,62.6,39.8,0.00,SSE,151,5.4,10.5,43,0.00,,---,0.00,VWS V13.01,2013-10-21 15:23:00,
2013-10-21 11:28:00,62.6,39.8,0.00,West,270,9.4,19.7,43,0.00,,---,0.00,VWS V13.01,2013-10-21 15:28:00,
2013-10-21 11:33:00,63.0,40.1,0.00,West,266,0.0,13.7,43,0.00,,---,0.00,VWS V13.01,2013-10-21 15:33:00,
2013-10-21 11:38:00,63.1,40.3,0.00,WSW,247,4.0,8.9,43,0.00,,---,0.00,VWS V13.01,2013-10-21 15:38:00,
2013-10-21 11:43:00,63.5,40.0,0.00,WSW,254,5.4,13.7,42,0.00,,---,0.00,VWS V13.01,2013-10-21 15:43:00,
2013-10-21 11:48:00,63.5,39.4,0.00,NNW,346,8.1,14.5,41,0.00,,---,0.00,VWS V13.01,2013-10-21 15:48:00,
2013-10-21 11:53:00,63.7,39.6,0.00,SSW,192,0.0,10.5,41,0.00,,---,0.00,VWS V13.01,2013-10-21 15:53:00,
2013-10-21 11:58:00,64.4,40.2,0.00,SSE,157,6.0,7.2,41,0.00,,---,0.00,VWS V13.01,2013-10-21 15:58:00,
2013-10-21 12:03:00,65.1,40.2,0.00,South,169,0.0,9.7,40,0.00,,---,0.00,VWS V13.01,2013-10-21 16:03:00,
2013-10-21 12:08:00,65.8,40.9,0.00,SW,229,0.0,14.5,40,0.00,,---,0.00,VWS V13.01,2013-10-21 16:08:00,
2013-10-21 12:13:00,65.7,40.7,0.00,WSW,255,4.0,14.5,40,0.00,,---,0.00,VWS V13.01,2013-10-21 16:13:00,
2013-10-21 12:18:00,65.5,40.5,0.00,WSW,252,8.7,22.1,40,0.00,,---,0.00,VWS V13.01,2013-10-21 16:18:00,
2013-10-21 12:23:00,65.5,39.9,0.00,WSW,246,4.7,14.5,39,0.00,,---,0.00,VWS V13.01,2013-10-21 16:23:00,
2013-10-21 12:28:00,65.7,40.0,0.00,WNW,297,4.0,19.7,39,0.00,,---,0.00,VWS V13.01,2013-10-21 16:28:00,
2013-10-21 12:33:00,65.8,40.2,0.00,West,259,7.4,11.3,39,0.00,,---,0.00,VWS V13.01,2013-10-21 16:33:00,
2013-10-21 12:38:00,65.7,40.0,0.00,South,184,4.0,14.9,39,0.00,,---,0.00,VWS V13.01,2013-10-21 16:38:00,
2013-10-21 12:43:00,65.8,40.2,0.00,WNW,283,8.7,14.5,39,0.00,,---,0.00,VWS V13.01,2013-10-21 16:43:00,
2013-10-21 12:48:00,66.0,40.4,0.00,West,274,9.4,11.3,39,0.00,,---,0.00,VWS V13.01,2013-10-21 16:48:00,
2013-10-21 12:53:00,66.4,40.0,0.00,South,170,10.7,23.0,38,0.00,,---,0.00,VWS V13.01,2013-10-21 16:53:00,
2013-10-21 12:58:00,66.7,40.3,0.00,SSE,164,4.7,18.9,38,0.00,,---,0.00,VWS V13.01,2013-10-21 16:58:00,
2013-10-21 13:03:00,66.9,40.5,0.00,SE,134,4.0,14.9,38,0.00,,---,0.00,VWS V13.01,2013-10-21 17:03:00,
2013-10-21 13:08:00,66.7,39.7,0.00,West,263,4.7,23.0,37,0.00,,---,0.00,VWS V13.01,2013-10-21 17:08:00,
2013-10-21 13:13:00,66.4,39.3,0.00,SW,218,3.4,15.7,37,0.00,,---,0.00,VWS V13.01,2013-10-21 17:13:00,
2013-10-21 13:18:00,66.0,39.0,0.00,SSE,155,5.4,17.3,37,0.00,,---,0.00,VWS V13.01,2013-10-21 17:18:00,
2013-10-21 13:23:00,65.8,38.9,0.00,SSE,155,4.0,11.3,37,0.00,,---,0.00,VWS V13.01,2013-10-21 17:23:00,
2013-10-21 13:28:00,65.7,38.7,0.00,NW,312,5.4,21.3,37,0.00,,---,0.00,VWS V13.01,2013-10-21 17:28:00,
2013-10-21 13:33:00,65.7,38.7,0.00,SW,234,8.7,14.9,37,0.00,,---,0.00,VWS V13.01,2013-10-21 17:33:00,
2013-10-21 13:38:00,66.2,39.2,0.00,SSW,213,7.4,13.7,37,0.00,,---,0.00,VWS V13.01,2013-10-21 17:38:00,
2013-10-21 13:43:00,66.6,39.5,0.00,East,100,8.7,10.5,37,0.00,,---,0.00,VWS V13.01,2013-10-21 17:43:00,
2013-10-21 13:48:00,66.7,39.7,0.00,South,180,6.0,15.7,37,0.00,,---,0.00,VWS V13.01,2013-10-21 17:48:00,
2013-10-21 13:53:00,66.6,39.5,0.00,ESE,116,8.7,10.5,37,0.00,,---,0.00,VWS V13.01,2013-10-21 17:53:00,
2013-10-21 13:58:00,66.2,38.5,0.00,SSE,149,4.7,13.7,36,0.00,,---,0.00,VWS V13.01,2013-10-21 17:58:00,
2013-10-21 14:03:00,66.2,39.2,0.00,South,179,4.0,9.7,37,0.00,,---,0.00,VWS V13.01,2013-10-21 18:03:00,
2013-10-21 14:08:00,66.2,39.2,0.00,SSE,155,4.0,10.5,37,0.00,,---,0.00,VWS V13.01,2013-10-21 18:08:00,
2013-10-21 14:13:00,66.2,39.2,0.00,South,178,4.0,10.5,37,0.00,,---,0.00,VWS V13.01,2013-10-21 18:13:00,
2013-10-21 14:18:00,66.4,39.3,0.00,SSE,168,0.0,9.7,37,0.00,,---,0.00,VWS V13.01,2013-10-21 18:18:00,
2013-10-21 14:23:00,66.4,39.3,0.00,West,280,7.4,19.7,37,0.00,,---,0.00,VWS V13.01,2013-10-21 18:23:00,
2013-10-21 14:28:00,66.2,39.2,0.00,SSE,157,4.0,9.7,37,0.00,,---,0.00,VWS V13.01,2013-10-21 18:28:00,
2013-10-21 14:33:00,66.2,39.2,0.00,South,184,0.0,14.5,37,0.00,,---,0.00,VWS V13.01,2013-10-21 18:33:00,
2013-10-21 14:38:00,65.8,38.9,0.00,SW,222,4.7,11.3,37,0.00,,---,0.00,VWS V13.01,2013-10-21 18:38:00,
2013-10-21 14:43:00,65.7,38.7,0.00,South,186,0.0,11.3,37,0.00,,---,0.00,VWS V13.01,2013-10-21 18:43:00,
2013-10-21 14:48:00,65.7,38.7,0.00,West,268,0.0,7.2,37,0.00,,---,0.00,VWS V13.01,2013-10-21 18:48:00,
2013-10-21 14:53:00,65.5,38.5,0.00,SSW,194,0.0,0.0,37,0.00,,---,0.00,VWS V13.01,2013-10-21 18:53:00,
2013-10-21 14:58:00,65.1,38.2,0.00,WSW,247,4.7,9.7,37,0.00,,---,0.00,VWS V13.01,2013-10-21 18:58:00,
2013-10-21 15:03:00,64.9,38.1,0.00,SSE,160,0.0,7.2,37,0.00,,---,0.00,VWS V13.01,2013-10-21 19:03:00,
2013-10-21 15:08:00,64.8,37.9,0.00,South,183,0.0,7.2,37,0.00,,---,0.00,VWS V13.01,2013-10-21 19:08:00,
2013-10-21 15:13:00,64.6,37.8,0.00,SE,136,0.0,5.6,37,0.00,,---,0.00,VWS V13.01,2013-10-21 19:13:00,
2013-10-21 15:18:00,64.4,37.6,0.00,ENE,77,0.0,11.3,37,0.00,,---,0.00,VWS V13.01,2013-10-21 19:18:00,
2013-10-21 15:23:00,64.2,38.1,0.00,WNW,291,5.4,7.2,38,0.00,,---,0.00,VWS V13.01,2013-10-21 19:23:00,
2013-10-21 15:28:00,64.2,38.1,0.00,WSW,249,4.0,13.7,38,0.00,,---,0.00,VWS V13.01,2013-10-21 19:28:00,
2013-10-21 15:33:00,64.2,38.1,0.00,WNW,299,6.0,13.7,38,0.00,,---,0.00,VWS V13.01,2013-10-21 19:33:00,
2013-10-21 15:38:00,64.2,37.4,0.00,SW,223,6.7,11.3,37,0.00,,---,0.00,VWS V13.01,2013-10-21 19:38:00,
2013-10-21 15:43:00,64.2,38.1,0.00,SSE,162,4.7,5.6,38,0.00,,---,0.00,VWS V13.01,2013-10-21 19:43:00,
2013-10-21 15:48:00,64.2,38.1,0.00,South,171,4.7,5.6,38,0.00,,---,0.00,VWS V13.01,2013-10-21 19:48:00,
2013-10-21 15:53:00,64.4,37.6,0.00,SSE,163,0.0,10.5,37,0.00,,---,0.00,VWS V13.01,2013-10-21 19:53:00,
2013-10-21 15:58:00,64.4,38.3,0.00,SE,124,0.0,8.1,38,0.00,,---,0.00,VWS V13.01,2013-10-21 19:58:00,
2013-10-21 16:03:00,64.2,38.8,0.00,SSE,166,0.0,0.0,39,0.00,,---,0.00,VWS V13.01,2013-10-21 20:03:00,
2013-10-21 16:08:00,64.0,38.6,0.00,SSE,165,4.0,11.3,39,0.00,,---,0.00,VWS V13.01,2013-10-21 20:08:00,
2013-10-21 16:13:00,64.0,37.9,0.00,SSW,207,3.4,11.3,38,0.00,,---,0.00,VWS V13.01,2013-10-21 20:13:00,
2013-10-21 16:18:00,63.9,37.8,0.00,SSW,208,3.4,10.5,38,0.00,,---,0.00,VWS V13.01,2013-10-21 20:18:00,
2013-10-21 16:23:00,63.5,37.5,0.00,SSE,154,4.7,7.2,38,0.00,,---,0.00,VWS V13.01,2013-10-21 20:23:00,
2013-10-21 16:28:00,63.5,37.5,0.00,East,84,0.0,8.9,38,0.00,,---,0.00,VWS V13.01,2013-10-21 20:28:00,
2013-10-21 16:33:00,63.3,37.3,0.00,ESE,118,0.0,7.2,38,0.00,,---,0.00,VWS V13.01,2013-10-21 20:33:00,
2013-10-21 16:38:00,63.1,37.8,0.00,SSE,164,4.0,7.2,39,0.00,,---,0.00,VWS V13.01,2013-10-21 20:38:00,
2013-10-21 16:43:00,63.0,37.6,0.00,SE,146,4.0,14.9,39,0.00,,---,0.00,VWS V13.01,2013-10-21 20:43:00,
2013-10-21 16:48:00,63.0,37.6,0.00,SSE,154,6.0,7.2,39,0.00,,---,0.00,VWS V13.01,2013-10-21 20:48:00,
2013-10-21 16:53:00,62.8,37.5,0.00,SSE,151,0.0,10.5,39,0.00,,---,0.00,VWS V13.01,2013-10-21 20:53:00,
2013-10-21 16:58:00,62.6,37.3,0.00,SSE,152,4.7,5.6,39,0.00,,---,0.00,VWS V13.01,2013-10-21 20:58:00,
2013-10-21 17:03:00,62.4,37.2,0.00,SSE,152,0.0,8.9,39,0.00,,---,0.00,VWS V13.01,2013-10-21 21:03:00,
2013-10-21 17:08:00,62.2,37.6,0.00,SE,140,0.0,7.2,40,0.00,,---,0.00,VWS V13.01,2013-10-21 21:08:00,
2013-10-21 17:13:00,62.1,37.5,0.00,South,175,0.0,7.2,40,0.00,,---,0.00,VWS V13.01,2013-10-21 21:13:00,
2013-10-21 17:18:00,61.9,37.3,0.00,ESE,122,0.0,7.2,40,0.00,,---,0.00,VWS V13.01,2013-10-21 21:18:00,
2013-10-21 17:23:00,61.7,37.2,0.00,SE,146,8.1,10.5,40,0.00,,---,0.00,VWS V13.01,2013-10-21 21:23:00,
2013-10-21 17:28:00,61.3,36.8,0.00,SSW,194,0.0,12.9,40,0.00,,---,0.00,VWS V13.01,2013-10-21 21:28:00,
2013-10-21 17:33:00,61.3,36.8,0.00,SSE,148,4.7,12.9,40,0.00,,---,0.00,VWS V13.01,2013-10-21 21:33:00,
2013-10-21 17:38:00,61.3,36.8,0.00,SSE,157,0.0,9.7,40,0.00,,---,0.00,VWS V13.01,2013-10-21 21:38:00,
2013-10-21 17:43:00,61.5,36.3,0.00,South,174,8.1,10.5,39,0.00,,---,0.00,VWS V13.01,2013-10-21 21:43:00,
2013-10-21 17:48:00,61.5,36.3,0.00,SSE,147,3.4,8.9,39,0.00,,---,0.00,VWS V13.01,2013-10-21 21:48:00,
2013-10-21 17:53:00,61.2,36.7,0.00,SE,140,0.0,4.0,40,0.00,,---,0.00,VWS V13.01,2013-10-21 21:53:00,
2013-10-21 17:58:00,61.0,35.9,0.00,SE,136,0.0,12.9,39,0.00,,---,0.00,VWS V13.01,2013-10-21 21:58:00,
2013-10-21 18:03:00,60.6,36.2,0.00,SE,141,0.0,8.9,40,0.00,,---,0.00,VWS V13.01,2013-10-21 22:03:00,
2013-10-21 18:08:00,60.4,36.0,0.00,SE,144,4.0,6.4,40,0.00,,---,0.00,VWS V13.01,2013-10-21 22:08:00,
2013-10-21 18:13:00,60.3,35.9,0.00,SE,138,4.0,8.9,40,0.00,,---,0.00,VWS V13.01,2013-10-21 22:13:00,
2013-10-21 18:18:00,60.3,35.9,0.00,ESE,115,7.4,8.9,40,0.00,,---,0.00,VWS V13.01,2013-10-21 22:18:00,
2013-10-21 18:23:00,60.1,35.7,0.00,ESE,122,0.0,4.0,40,0.00,,---,0.00,VWS V13.01,2013-10-21 22:23:00,
2013-10-21 18:28:00,59.9,35.5,0.00,SSE,147,0.0,6.4,40,0.00,,---,0.00,VWS V13.01,2013-10-21 22:28:00,
2013-10-21 18:33:00,59.7,36.0,0.00,SSE,152,0.0,9.7,41,0.00,,---,0.00,VWS V13.01,2013-10-21 22:33:00,
2013-10-21 18:38:00,59.7,36.0,0.00,SE,139,6.0,7.2,41,0.00,,---,0.00,VWS V13.01,2013-10-21 22:38:00,
2013-10-21 18:43:00,59.7,36.0,0.00,SE,129,0.0,9.7,41,0.00,,---,0.00,VWS V13.01,2013-10-21 22:43:00,
2013-10-21 18:48:00,59.7,36.0,0.00,SSE,149,3.4,10.5,41,0.00,,---,0.00,VWS V13.01,2013-10-21 22:48:00,
2013-10-21 18:53:00,59.4,35.7,0.00,ESE,117,4.7,11.3,41,0.00,,---,0.00,VWS V13.01,2013-10-21 22:53:00,
2013-10-21 18:57:00,59.4,35.7,0.00,SE,131,4.0,9.7,41,0.00,,---,0.00,VWS V13.01,2013-10-21 22:57:00,
2013-10-21 19:02:00,59.4,35.7,0.00,SSE,161,0.0,0.0,41,0.00,,---,0.00,VWS V13.01,2013-10-21 23:02:00,
2013-10-21 19:08:00,59.4,35.7,0.00,SSE,168,4.7,7.2,41,0.00,,---,0.00,VWS V13.01,2013-10-21 23:08:00,
2013-10-21 19:13:00,59.5,35.8,0.00,SE,127,0.0,11.3,41,0.00,,---,0.00,VWS V13.01,2013-10-21 23:13:00,
2013-10-21 19:18:00,59.4,35.7,0.00,South,175,7.4,10.5,41,0.00,,---,0.00,VWS V13.01,2013-10-21 23:18:00,
2013-10-21 19:23:00,59.5,35.8,0.00,SW,228,11.4,14.9,41,0.00,,---,0.00,VWS V13.01,2013-10-21 23:23:00,
2013-10-21 19:28:00,59.4,35.7,0.00,SE,137,0.0,7.2,41,0.00,,---,0.00,VWS V13.01,2013-10-21 23:28:00,
2013-10-21 19:33:00,59.5,35.8,0.00,SE,128,0.0,7.2,41,0.00,,---,0.00,VWS V13.01,2013-10-21 23:33:00,
2013-10-21 19:38:00,59.5,35.8,0.00,SW,219,9.4,11.3,41,0.00,,---,0.00,VWS V13.01,2013-10-21 23:38:00,
2013-10-21 19:43:00,59.5,35.8,0.00,SSW,195,0.0,8.9,41,0.00,,---,0.00,VWS V13.01,2013-10-21 23:43:00,
2013-10-21 19:48:00,59.5,35.8,0.00,SE,145,0.0,8.1,41,0.00,,---,0.00,VWS V13.01,2013-10-21 23:48:00,
2013-10-21 19:53:00,59.4,35.7,0.00,SSE,159,0.0,9.7,41,0.00,,---,0.00,VWS V13.01,2013-10-21 23:53:00,
2013-10-21 19:58:00,59.4,35.7,0.00,SSE,159,5.4,8.9,41,0.00,,---,0.00,VWS V13.01,2013-10-21 23:58:00,
2013-10-21 20:03:00,59.4,35.7,0.00,ESE,123,5.4,10.5,41,0.00,,---,0.00,VWS V13.01,2013-10-22 00:03:00,
2013-10-21 20:08:00,59.5,35.8,0.00,SSW,205,6.0,17.3,41,0.00,,---,0.00,VWS V13.01,2013-10-22 00:08:00,
2013-10-21 20:13:00,59.4,35.7,0.00,South,172,5.4,18.9,41,0.00,,---,0.00,VWS V13.01,2013-10-22 00:13:00,
2013-10-21 20:18:00,59.5,35.2,0.00,South,180,0.0,11.3,40,0.00,,---,0.00,VWS V13.01,2013-10-22 00:18:00,
2013-10-21 20:23:00,59.5,35.2,0.00,ENE,78,6.0,11.3,40,0.00,,---,0.00,VWS V13.01,2013-10-22 00:23:00,
2013-10-21 20:28:00,59.5,35.2,0.00,SE,140,0.0,14.9,40,0.00,,---,0.00,VWS V13.01,2013-10-22 00:28:00,
2013-10-21 20:33:00,59.5,35.2,0.00,SSE,151,5.4,11.3,40,0.00,,---,0.00,VWS V13.01,2013-10-22 00:33:00,
2013-10-21 20:38:00,59.4,35.7,0.00,WNW,285,4.0,11.3,41,0.00,,---,0.00,VWS V13.01,2013-10-22 00:38:00,
2013-10-21 20:43:00,59.5,35.8,0.00,SSE,158,4.7,14.5,41,0.00,,---,0.00,VWS V13.01,2013-10-22 00:43:00,
2013-10-21 20:48:00,59.4,35.7,0.00,SE,124,4.7,18.9,41,0.00,,---,0.00,VWS V13.01,2013-10-22 00:48:00,
2013-10-21 20:53:00,59.4,35.7,0.00,SE,141,4.0,7.2,41,0.00,,---,0.00,VWS V13.01,2013-10-22 00:53:00,
2013-10-21 20:58:00,59.2,35.5,0.00,WNW,288,4.0,9.7,41,0.00,,---,0.00,VWS V13.01,2013-10-22 00:58:00,
2013-10-21 21:03:00,59.0,35.3,0.00,SSE,153,8.7,15.7,41,0.00,,---,0.00,VWS V13.01,2013-10-22 01:03:00,
2013-10-21 21:08:00,59.0,35.3,0.00,SSW,200,3.4,13.7,41,0.00,,---,0.00,VWS V13.01,2013-10-22 01:08:00,
2013-10-21 21:13:00,58.8,35.8,0.00,SE,138,4.0,10.5,42,0.00,,---,0.00,VWS V13.01,2013-10-22 01:13:00,
2013-10-21 21:18:00,58.8,35.8,0.00,SSW,196,0.0,9.7,42,0.00,,---,0.00,VWS V13.01,2013-10-22 01:18:00,
2013-10-21 21:23:00,58.6,36.2,0.00,SSE,155,7.4,13.7,43,0.00,,---,0.00,VWS V13.01,2013-10-22 01:23:00,
2013-10-21 21:28:00,58.8,36.4,0.00,SE,144,9.4,14.9,43,0.00,,---,0.00,VWS V13.01,2013-10-22 01:28:00,
2013-10-21 21:33:00,59.0,36.0,0.00,NNE,33,0.0,15.7,42,0.00,,---,0.00,VWS V13.01,2013-10-22 01:33:00,
2013-10-21 21:39:00,58.6,36.2,0.00,SSE,168,5.4,11.3,43,0.00,,---,0.00,VWS V13.01,2013-10-22 01:39:00,
2013-10-21 21:44:00,58.6,36.2,0.00,SSW,200,5.4,8.9,43,0.00,,---,0.00,VWS V13.01,2013-10-22 01:44:00,
2013-10-21 21:49:00,58.5,36.7,0.00,SE,144,5.4,7.2,44,0.00,,---,0.00,VWS V13.01,2013-10-22 01:49:00,
2013-10-21 21:54:00,58.5,36.7,0.00,SSE,158,11.4,14.9,44,0.00,,---,0.00,VWS V13.01,2013-10-22 01:54:00,
2013-10-21 21:59:00,58.5,36.7,0.00,SE,141,5.4,6.4,44,0.00,,---,0.00,VWS V13.01,2013-10-22 01:59:00,
2013-10-21 22:04:00,58.5,36.7,0.00,SSE,157,8.1,13.7,44,0.00,,---,0.00,VWS V13.01,2013-10-22 02:04:00,
2013-10-21 22:09:00,58.8,37.0,0.00,SSW,200,0.0,19.7,44,0.00,,---,0.00,VWS V13.01,2013-10-22 02:09:00,
2013-10-21 22:14:00,58.8,37.0,0.00,South,191,4.7,14.9,44,0.00,,---,0.00,VWS V13.01,2013-10-22 02:14:00,
2013-10-21 22:19:00,58.6,36.8,0.00,SW,218,4.7,12.9,44,0.00,,---,0.00,VWS V13.01,2013-10-22 02:19:00,
2013-10-21 22:24:00,58.5,36.7,0.00,SSE,147,8.1,9.7,44,0.00,,---,0.00,VWS V13.01,2013-10-22 02:24:00,
2013-10-21 22:29:00,58.5,36.7,0.00,SE,130,4.7,9.7,44,0.00,,---,0.00,VWS V13.01,2013-10-22 02:29:00,
2013-10-21 22:34:00,58.5,36.7,0.00,South,173,4.0,14.9,44,0.00,,---,0.00,VWS V13.01,2013-10-22 02:34:00,
2013-10-21 22:39:00,58.1,36.3,0.00,SE,138,6.0,14.5,44,0.00,,---,0.00,VWS V13.01,2013-10-22 02:39:00,
2013-10-21 22:44:00,58.1,36.9,0.00,SSE,150,8.7,10.5,45,0.00,,---,0.00,VWS V13.01,2013-10-22 02:44:00,
2013-10-21 22:49:00,58.1,36.9,0.00,SE,142,3.4,17.3,45,0.00,,---,0.00,VWS V13.01,2013-10-22 02:49:00,
2013-10-21 22:54:00,58.1,36.9,0.00,SW,219,5.4,13.7,45,0.00,,---,0.00,VWS V13.01,2013-10-22 02:54:00,
2013-10-21 22:59:00,57.7,36.6,0.00,South,169,4.7,11.3,45,0.00,,---,0.00,VWS V13.01,2013-10-22 02:59:00,
2013-10-21 23:04:00,57.6,36.4,0.00,SE,140,3.4,14.5,45,0.00,,---,0.00,VWS V13.01,2013-10-22 03:04:00,
2013-10-21 23:09:00,57.6,36.4,0.00,SE,137,0.0,13.7,45,0.00,,---,0.00,VWS V13.01,2013-10-22 03:09:00,
2013-10-21 23:14:00,57.6,36.4,0.00,South,189,4.0,12.1,45,0.00,,---,0.00,VWS V13.01,2013-10-22 03:14:00,
2013-10-21 23:19:00,57.6,36.4,0.00,SSE,157,4.7,10.5,45,0.00,,---,0.00,VWS V13.01,2013-10-22 03:19:00,
2013-10-21 23:24:00,57.4,36.2,0.00,SW,225,0.0,7.2,45,0.00,,---,0.00,VWS V13.01,2013-10-22 03:24:00,
2013-10-21 23:29:00,57.2,36.1,0.00,SSE,166,6.0,7.2,45,0.00,,---,0.00,VWS V13.01,2013-10-22 03:29:00,
2013-10-21 23:34:00,57.2,36.1,0.00,South,173,5.4,13.7,45,0.00,,---,0.00,VWS V13.01,2013-10-22 03:34:00,
2013-10-21 23:39:00,57.0,35.9,0.00,South,178,0.0,14.5,45,0.00,,---,0.00,VWS V13.01,2013-10-22 03:39:00,
2013-10-21 23:44:00,56.7,35.6,0.00,SE,143,5.4,6.4,45,0.00,,---,0.00,VWS V13.01,2013-10-22 03:44:00,
2013-10-21 23:49:00,57.0,36.5,0.00,South,169,12.1,14.5,46,0.00,,---,0.00,VWS V13.01,2013-10-22 03:49:00,
2013-10-21 23:54:00,57.0,36.5,0.00,South,178,13.1,15.7,46,0.00,,---,0.00,VWS V13.01,2013-10-22 03:54:00,
2013-10-21 23:59:00,57.0,36.5,0.00,SSE,159,8.7,10.5,46,0.00,,---,0.00,VWS V13.01,2013-10-22 03:59:00,